Time;durP1;ratioP1;P1;durP2;ratioP2;P2;SDS_P1;SDS_P2;PMS_P1;PMS_P2;Temp;Humidity;BMP_temperature;BMP_pressure;BME280_temperature;BME280_humidity;BME280_pressure;Samples;Min_cycle;Max_cycle;Signal;HPM_P1;HPM_P2
2022/01/06 00:02:20;;;;;;;1.37;1.27;;;2.70;99.90;;;;;;8413028;28;20211;-66
2022/01/06 00:06:22;;;;;;;2.00;1.77;;;2.60;99.90;;;;;;8414410;28;20214;-66
2022/01/06 00:10:26;;;;;;;2.00;1.60;;;2.60;99.90;;;;;;8412412;28;20196;-67
2022/01/06 00:27:07;;;;;;;4.03;1.50;;;2.90;99.90;;;;;;8416923;28;20184;-66
2022/01/06 00:31:08;;;;;;;1.90;1.70;;;2.90;99.90;;;;;;8415625;28;20230;-67
2022/01/06 00:35:09;;;;;;;1.63;1.47;;;2.90;99.90;;;;;;8413702;28;20288;-66
2022/01/06 00:39:11;;;;;;;3.20;1.57;;;2.90;99.90;;;;;;8408300;28;20232;-65
2022/01/06 00:43:12;;;;;;;3.07;1.40;;;2.80;99.90;;;;;;8415477;28;20213;-64
2022/01/06 00:47:13;;;;;;;4.27;1.30;;;2.80;99.90;;;;;;8417749;28;20192;-66
2022/01/06 00:51:14;;;;;;;3.83;0.93;;;2.70;99.90;;;;;;8428046;28;20196;-66
2022/01/06 00:55:15;;;;;;;2.17;0.70;;;2.70;99.90;;;;;;8411237;28;20226;-64
2022/01/06 00:59:16;;;;;;;3.57;1.00;;;2.60;99.90;;;;;;8412956;28;20188;-65
2022/01/06 01:03:20;;;;;;;2.80;1.00;;;2.50;99.90;;;;;;8407162;28;20215;-65
2022/01/06 01:07:20;;;;;;;1.83;1.20;;;2.40;99.90;;;;;;8410084;28;20571;-64
2022/01/06 01:11:21;;;;;;;1.17;1.00;;;2.30;99.90;;;;;;8413434;28;20207;-66
2022/01/06 01:15:23;;;;;;;2.23;1.00;;;2.10;99.90;;;;;;8408125;28;20668;-64
2022/01/06 01:19:25;;;;;;;2.43;0.90;;;1.80;99.90;;;;;;8416465;28;20185;-63
2022/01/06 01:23:26;;;;;;;4.47;1.40;;;1.70;99.90;;;;;;8410451;28;20212;-66
2022/01/06 01:27:31;;;;;;;3.07;1.30;;;1.70;99.90;;;;;;8401466;28;20185;-64
2022/01/06 01:31:36;;;;;;;2.50;1.17;;;1.70;99.90;;;;;;8406113;28;20188;-64
2022/01/06 01:35:37;;;;;;;2.40;0.90;;;1.70;99.90;;;;;;8407205;28;20201;-65
2022/01/06 01:39:38;;;;;;;2.43;1.00;;;1.70;99.90;;;;;;8409893;28;20547;-64
2022/01/06 01:43:40;;;;;;;2.97;1.20;;;1.80;99.90;;;;;;8407826;28;20212;-65
2022/01/06 01:47:44;;;;;;;2.80;1.10;;;1.80;99.90;;;;;;8409158;28;20203;-63
2022/01/06 01:51:45;;;;;;;4.33;1.57;;;1.80;99.90;;;;;;8401455;28;20215;-64
2022/01/06 01:55:46;;;;;;;4.30;1.57;;;1.90;99.90;;;;;;8414688;28;20528;-66
2022/01/06 01:59:47;;;;;;;4.27;1.60;;;1.90;99.90;;;;;;8411067;28;20188;-65
2022/01/06 02:03:48;;;;;;;3.77;1.77;;;1.90;99.90;;;;;;8412643;28;20215;-66
2022/01/06 02:07:49;;;;;;;1.53;1.27;;;1.80;99.90;;;;;;8405696;28;20184;-65
2022/01/06 02:11:49;;;;;;;4.37;1.73;;;1.70;99.90;;;;;;8404972;28;20206;-66
2022/01/06 02:15:51;;;;;;;3.77;1.77;;;1.60;99.90;;;;;;8415115;28;20243;-66
2022/01/06 02:20:04;;;;;;;5.80;1.83;;;1.60;99.90;;;;;;8402912;28;20188;-66
2022/01/06 02:24:05;;;;;;;3.27;1.90;;;1.90;99.90;;;;;;8410987;28;20238;-64
2022/01/06 02:28:06;;;;;;;5.63;2.30;;;2.00;99.90;;;;;;8411305;28;20508;-66
2022/01/06 02:32:15;;;;;;;3.93;2.53;;;2.10;99.90;;;;;;8410346;28;20404;-66
2022/01/06 02:36:15;;;;;;;8.13;2.37;;;2.20;99.90;;;;;;8388307;28;20196;-66
2022/01/06 02:40:19;;;;;;;4.50;3.10;;;2.30;99.90;;;;;;8406074;28;20212;-66
2022/01/06 02:44:24;;;;;;;4.63;2.13;;;2.40;99.90;;;;;;8414736;28;20444;-64
2022/01/06 02:53:22;;;;;;;2.67;1.20;;;1.90;99.90;;;;;;8396408;28;20207;-65
2022/01/06 02:57:22;;;;;;;1.70;1.10;;;1.80;99.90;;;;;;8398167;28;20181;-65
2022/01/06 03:01:23;;;;;;;1.50;1.33;;;1.80;99.90;;;;;;8403904;28;20204;-66
2022/01/06 03:05:24;;;;;;;2.83;1.30;;;1.70;99.90;;;;;;8409532;28;20296;-65
2022/01/06 03:09:36;;;;;;;3.63;1.40;;;1.60;99.90;;;;;;8402198;28;20574;-66
2022/01/06 03:13:37;;;;;;;3.27;0.87;;;1.50;99.90;;;;;;8415568;28;20224;-65
2022/01/06 03:17:42;;;;;;;2.90;1.30;;;1.50;99.90;;;;;;8415864;28;20204;-66
2022/01/06 03:21:43;;;;;;;1.20;0.90;;;1.50;99.90;;;;;;8419351;28;20211;-66
2022/01/06 03:25:44;;;;;;;5.43;0.90;;;1.50;99.90;;;;;;8420215;28;20229;-67
2022/01/06 03:29:44;;;;;;;4.23;1.20;;;1.50;99.90;;;;;;8421399;28;20287;-65
2022/01/06 03:33:46;;;;;;;2.23;1.10;;;1.50;99.90;;;;;;8416815;28;20191;-67
2022/01/06 03:37:46;;;;;;;3.13;1.17;;;1.50;99.90;;;;;;8422017;28;20196;-64
2022/01/06 03:41:47;;;;;;;2.80;1.27;;;1.50;99.90;;;;;;8418693;28;20212;-65
2022/01/06 03:45:48;;;;;;;3.33;1.37;;;1.50;99.90;;;;;;8421168;28;20180;-66
2022/01/06 03:49:49;;;;;;;2.30;1.23;;;1.50;99.90;;;;;;8418830;28;20181;-65
2022/01/06 03:53:51;;;;;;;4.37;1.50;;;1.40;99.90;;;;;;8407044;28;21135;-65
2022/01/06 03:57:51;;;;;;;4.83;1.50;;;1.40;99.90;;;;;;8414549;28;20184;-67
2022/01/06 04:01:52;;;;;;;5.93;1.50;;;1.40;99.90;;;;;;8420950;28;20267;-65
2022/01/06 04:05:53;;;;;;;5.47;1.80;;;1.50;99.90;;;;;;8418482;28;20185;-65
2022/01/06 04:09:54;;;;;;;8.20;2.60;;;1.60;99.90;;;;;;8408244;28;20222;-66
2022/01/06 04:13:55;;;;;;;3.57;1.63;;;1.70;99.90;;;;;;8412998;28;20184;-64
2022/01/06 04:17:56;;;;;;;7.43;3.03;;;1.70;99.90;;;;;;8410956;28;20196;-65
2022/01/06 04:21:57;;;;;;;7.07;1.60;;;1.80;99.90;;;;;;8408208;28;20208;-66
2022/01/06 04:25:58;;;;;;;6.23;1.87;;;1.80;99.90;;;;;;8411438;28;20191;-66
2022/01/06 04:29:58;;;;;;;4.40;1.87;;;1.80;99.90;;;;;;8410094;28;20230;-66
2022/01/06 04:33:59;;;;;;;2.80;1.97;;;1.80;99.90;;;;;;8411658;28;20212;-66
2022/01/06 04:38:00;;;;;;;4.00;2.10;;;1.80;99.90;;;;;;8420650;28;20185;-66
2022/01/06 04:42:01;;;;;;;2.60;1.50;;;1.80;99.90;;;;;;8405620;28;20232;-64
2022/01/06 04:46:02;;;;;;;4.53;2.30;;;1.80;99.90;;;;;;8404963;28;20186;-67
2022/01/06 04:50:05;;;;;;;5.83;1.90;;;1.70;99.90;;;;;;8413569;28;20176;-65
2022/01/06 04:54:06;;;;;;;4.97;2.00;;;1.60;99.90;;;;;;8415449;28;20181;-66
2022/01/06 04:58:07;;;;;;;6.07;1.90;;;1.60;99.90;;;;;;8412219;28;20188;-64
2022/01/06 05:02:08;;;;;;;5.47;2.10;;;1.60;99.90;;;;;;8405296;28;20200;-65
2022/01/06 05:06:09;;;;;;;3.33;2.20;;;1.60;99.90;;;;;;8411345;28;20187;-67
2022/01/06 05:10:10;;;;;;;6.47;2.10;;;1.50;99.90;;;;;;8415730;28;20177;-66
2022/01/06 05:14:11;;;;;;;2.10;1.47;;;1.30;99.90;;;;;;8414601;28;20185;-66
2022/01/06 05:18:12;;;;;;;3.83;1.73;;;0.90;99.90;;;;;;8417716;28;20597;-69
2022/01/06 05:22:13;;;;;;;4.77;1.97;;;0.80;99.90;;;;;;8416458;28;20224;-65
2022/01/06 05:26:14;;;;;;;3.97;1.70;;;0.80;99.90;;;;;;8411247;28;20587;-67
2022/01/06 05:30:14;;;;;;;7.27;2.10;;;0.80;99.90;;;;;;8413346;28;20184;-67
2022/01/06 05:34:15;;;;;;;3.33;1.70;;;0.80;99.90;;;;;;8418738;28;20181;-68
2022/01/06 05:38:16;;;;;;;3.13;1.37;;;0.80;99.90;;;;;;8414543;28;20189;-66
2022/01/06 05:42:17;;;;;;;3.23;1.47;;;0.80;99.90;;;;;;8402502;28;20281;-67
2022/01/06 05:46:18;;;;;;;3.03;1.50;;;0.70;99.90;;;;;;8412795;28;20186;-67
2022/01/06 05:50:20;;;;;;;4.07;1.77;;;0.70;99.90;;;;;;8438041;27;20181;-68
2022/01/06 05:54:21;;;;;;;3.00;1.80;;;0.60;99.90;;;;;;8412070;28;20187;-65
2022/01/06 05:58:22;;;;;;;8.17;1.80;;;0.60;99.90;;;;;;8413793;28;20520;-68
2022/01/06 06:02:23;;;;;;;2.70;1.93;;;0.60;99.90;;;;;;8410688;28;20218;-67
2022/01/06 06:06:23;;;;;;;3.23;1.83;;;0.60;99.90;;;;;;8415807;28;20187;-66
2022/01/06 06:10:24;;;;;;;5.63;1.87;;;0.60;99.90;;;;;;8409761;28;20198;-68
2022/01/06 06:14:25;;;;;;;4.27;1.80;;;0.60;99.90;;;;;;8406849;28;20189;-65
2022/01/06 06:18:26;;;;;;;1.63;1.37;;;0.60;99.90;;;;;;8402944;28;20226;-66
2022/01/06 06:22:27;;;;;;;5.13;2.00;;;0.60;99.90;;;;;;8406857;28;20215;-66
2022/01/06 06:26:28;;;;;;;3.23;1.90;;;0.60;99.90;;;;;;8402963;28;20191;-67
2022/01/06 06:30:28;;;;;;;5.73;2.07;;;0.60;99.90;;;;;;8411681;28;20503;-66
2022/01/06 06:34:29;;;;;;;3.77;1.60;;;0.60;99.90;;;;;;8410205;28;20233;-69
2022/01/06 06:38:30;;;;;;;4.10;1.60;;;0.60;99.90;;;;;;8413604;28;20188;-67
2022/01/06 06:42:31;;;;;;;1.53;1.20;;;0.60;99.90;;;;;;8406964;28;20278;-68
2022/01/06 06:46:32;;;;;;;2.87;1.47;;;0.60;99.90;;;;;;8410052;28;20738;-67
2022/01/06 06:50:32;;;;;;;3.80;2.30;;;0.60;99.90;;;;;;8409268;28;20287;-67
2022/01/06 06:54:33;;;;;;;3.00;1.63;;;0.50;99.90;;;;;;8406333;28;20189;-67
2022/01/06 06:58:34;;;;;;;1.70;1.47;;;0.60;99.90;;;;;;8408060;28;20205;-67
2022/01/06 07:02:35;;;;;;;2.27;1.50;;;0.60;99.90;;;;;;8416520;28;20208;-68
2022/01/06 07:06:36;;;;;;;8.03;2.53;;;0.50;99.90;;;;;;8404755;28;20210;-67
2022/01/06 07:10:37;;;;;;;2.03;1.60;;;0.50;99.90;;;;;;8401971;28;20243;-68
2022/01/06 07:14:38;;;;;;;2.33;1.40;;;0.40;99.90;;;;;;8404393;28;20248;-67
2022/01/06 07:18:39;;;;;;;5.70;1.50;;;0.40;99.90;;;;;;8402438;28;20204;-67
2022/01/06 07:22:40;;;;;;;3.40;1.53;;;0.40;99.90;;;;;;8411104;28;20298;-67
2022/01/06 07:26:41;;;;;;;3.77;1.70;;;0.40;99.90;;;;;;8414241;28;20187;-68
2022/01/06 07:30:42;;;;;;;2.90;1.80;;;0.30;99.90;;;;;;8403400;28;20327;-67
2022/01/06 07:34:42;;;;;;;3.20;1.37;;;0.20;99.90;;;;;;8401704;28;20281;-66
2022/01/06 07:38:43;;;;;;;5.57;1.47;;;0.20;99.90;;;;;;8405248;28;20200;-65
2022/01/06 07:42:44;;;;;;;5.30;1.67;;;0.20;99.90;;;;;;8406626;28;20244;-67
2022/01/06 07:46:48;;;;;;;3.37;1.10;;;0.10;99.90;;;;;;8412253;28;20172;-65
2022/01/06 07:50:49;;;;;;;4.47;1.47;;;0.10;99.90;;;;;;8402224;28;20198;-67
2022/01/06 07:54:49;;;;;;;1.77;1.10;;;0.10;99.90;;;;;;8398682;28;20188;-66
2022/01/06 07:58:50;;;;;;;2.27;1.10;;;0.10;99.90;;;;;;8418806;28;20607;-67
2022/01/06 08:02:52;;;;;;;1.37;0.90;;;0.00;99.90;;;;;;8410029;28;20222;-67
2022/01/06 08:06:52;;;;;;;1.93;1.13;;;0.00;99.90;;;;;;8408829;28;20333;-67
2022/01/06 08:10:53;;;;;;;2.20;1.13;;;0.60;99.90;;;;;;8408016;28;20181;-67
2022/01/06 08:14:54;;;;;;;9.33;3.10;;;0.70;1.00;;;;;;8416086;28;20191;-67
2022/01/06 08:18:56;;;;;;;10.53;3.90;;;0.30;1.00;;;;;;8410611;28;20188;-66
2022/01/06 08:22:57;;;;;;;6.70;2.03;;;0.10;1.00;;;;;;8413632;28;20204;-66
2022/01/06 08:26:59;;;;;;;6.37;2.50;;;0.10;18.40;;;;;;8417638;28;20190;-66
2022/01/06 08:31:00;;;;;;;3.53;1.43;;;0.00;1.00;;;;;;8408120;28;20185;-66
2022/01/06 08:35:01;;;;;;;2.90;1.50;;;-0.10;1.00;;;;;;8415442;28;20213;-66
2022/01/06 08:39:03;;;;;;;1.67;1.37;;;-0.10;1.00;;;;;;8406452;28;20187;-66
2022/01/06 08:43:04;;;;;;;4.67;1.67;;;-0.10;1.00;;;;;;8405877;28;20213;-66
2022/01/06 08:47:09;;;;;;;2.47;1.23;;;-0.10;1.00;;;;;;8413677;28;20187;-68
2022/01/06 08:51:09;;;;;;;4.60;1.27;;;-0.10;1.00;;;;;;8410742;28;20198;-67
2022/01/06 08:55:11;;;;;;;4.90;0.97;;;0.00;1.00;;;;;;8415563;28;20204;-66
2022/01/06 08:59:15;;;;;;;2.40;0.97;;;0.20;1.00;;;;;;8419236;28;20214;-66
2022/01/06 09:03:16;;;;;;;1.10;0.83;;;0.30;99.90;;;;;;8412269;28;20271;-66
2022/01/06 09:07:17;;;;;;;1.90;0.90;;;0.30;99.90;;;;;;8406928;28;20186;-67
2022/01/06 09:11:18;;;;;;;6.43;1.20;;;0.20;1.00;;;;;;8406792;28;20222;-68
2022/01/06 09:15:19;;;;;;;2.30;0.70;;;0.20;99.90;;;;;;8409698;28;20216;-66
2022/01/06 09:19:20;;;;;;;3.33;0.90;;;0.10;99.90;;;;;;8406693;28;20198;-67
2022/01/06 09:23:22;;;;;;;1.63;1.00;;;0.20;1.00;;;;;;8408745;28;20217;-66
2022/01/06 09:27:23;;;;;;;3.33;1.00;;;0.10;99.90;;;;;;8406392;28;20190;-66
2022/01/06 09:31:26;;;;;;;5.77;1.30;;;0.10;1.00;;;;;;8405517;28;20279;-67
2022/01/06 09:35:27;;;;;;;3.00;1.27;;;0.30;1.00;;;;;;8403085;28;20185;-68
2022/01/06 09:39:28;;;;;;;3.00;1.00;;;0.60;1.00;;;;;;8397211;28;20222;-67
2022/01/06 09:43:30;;;;;;;3.77;1.37;;;0.80;1.00;;;;;;8400706;28;20240;-66
2022/01/06 09:47:32;;;;;;;2.47;1.23;;;0.80;1.00;;;;;;8393560;28;20226;-66
2022/01/06 09:51:33;;;;;;;3.43;1.37;;;0.80;99.90;;;;;;8409091;28;20180;-67
2022/01/06 09:55:34;;;;;;;1.87;0.67;;;0.80;99.90;;;;;;8401803;28;20193;-67
2022/01/06 09:59:35;;;;;;;1.20;0.70;;;0.70;30.40;;;;;;8411687;28;20468;-66
2022/01/06 10:03:38;;;;;;;1.07;0.83;;;0.70;37.40;;;;;;8405478;28;20220;-67
2022/01/06 10:07:40;;;;;;;3.33;1.07;;;0.70;99.90;;;;;;8391904;28;20177;-67
2022/01/06 10:11:43;;;;;;;2.77;0.80;;;1.10;1.00;;;;;;8396253;28;20184;-67
2022/01/06 10:15:47;;;;;;;1.67;1.00;;;1.00;99.90;;;;;;8405825;28;20232;-67
2022/01/06 10:19:47;;;;;;;2.53;1.10;;;1.20;9.10;;;;;;8405065;28;20185;-67
2022/01/06 10:24:05;;;;;;;2.90;0.90;;;1.30;99.90;;;;;;8406617;28;20207;-67
2022/01/06 10:28:14;;;;;;;3.07;1.00;;;1.30;99.90;;;;;;8410235;28;20300;-67
2022/01/06 10:32:16;;;;;;;2.87;0.87;;;1.30;1.00;;;;;;8409135;28;20185;-67
2022/01/06 10:36:18;;;;;;;2.97;1.00;;;1.80;99.90;;;;;;8414942;28;20188;-67
2022/01/06 10:40:26;;;;;;;1.63;1.07;;;1.90;99.90;;;;;;8407548;28;20816;-67
2022/01/06 10:44:26;;;;;;;2.20;0.70;;;1.90;99.90;;;;;;8409732;28;20245;-67
2022/01/06 10:48:27;;;;;;;6.23;1.20;;;2.00;99.90;;;;;;8401005;28;20211;-67
2022/01/06 10:52:28;;;;;;;3.13;0.87;;;2.50;99.90;;;;;;8406148;28;20192;-66
2022/01/06 10:56:29;;;;;;;5.97;1.00;;;2.50;1.00;;;;;;8400410;28;20192;-74
2022/01/06 11:00:37;;;;;;;3.90;1.03;;;2.40;99.90;;;;;;8415498;28;20181;-66
2022/01/06 11:04:37;;;;;;;2.70;1.00;;;2.40;99.90;;;;;;8408119;28;20195;-66
2022/01/06 11:08:42;;;;;;;3.77;0.97;;;2.50;99.90;;;;;;8412842;28;20220;-67
2022/01/06 11:12:43;;;;;;;1.67;1.03;;;2.40;3.80;;;;;;8404728;28;20192;-67
2022/01/06 11:16:44;;;;;;;1.83;0.93;;;2.60;99.90;;;;;;8415381;28;20246;-67
2022/01/06 11:20:49;;;;;;;3.30;0.90;;;2.50;1.00;;;;;;8403671;28;20219;-68
2022/01/06 11:24:55;;;;;;;5.37;1.10;;;2.10;99.90;;;;;;8409684;28;20226;-68
2022/01/06 11:28:58;;;;;;;3.87;1.33;;;2.20;99.90;;;;;;8414327;28;20185;-67
2022/01/06 11:32:59;;;;;;;2.90;1.23;;;2.20;99.90;;;;;;8412675;28;20291;-67
2022/01/06 11:37:09;;;;;;;4.30;1.10;;;2.10;99.90;;;;;;8406425;28;20192;-69
2022/01/06 11:41:11;;;;;;;3.80;1.17;;;2.10;99.90;;;;;;8413321;28;20208;-67
2022/01/06 11:45:19;;;;;;;2.83;1.20;;;1.80;1.00;;;;;;8411728;28;20192;-67
2022/01/06 11:49:42;;;;;;;4.63;1.07;;;2.00;99.90;;;;;;8411262;28;20264;-67
2022/01/06 11:53:43;;;;;;;2.93;1.13;;;2.20;1.00;;;;;;8410929;28;20197;-68
2022/01/06 11:57:44;;;;;;;4.50;1.20;;;2.20;99.90;;;;;;8407856;28;20219;-67
2022/01/06 12:01:48;;;;;;;1.47;0.83;;;2.00;99.90;;;;;;8410675;28;20260;-67
2022/01/06 12:05:53;;;;;;;4.20;1.33;;;2.10;99.90;;;;;;8409439;28;20226;-67
2022/01/06 12:10:07;;;;;;;3.53;1.13;;;2.40;87.90;;;;;;8409263;28;20187;-66
2022/01/06 12:14:08;;;;;;;2.73;1.40;;;2.10;99.90;;;;;;8405229;28;20181;-67
2022/01/06 12:18:09;;;;;;;1.87;0.90;;;2.10;49.60;;;;;;8409778;28;20411;-68
2022/01/06 12:22:11;;;;;;;2.90;1.10;;;2.20;99.90;;;;;;8412923;28;20216;-67
2022/01/06 12:26:13;;;;;;;3.83;1.20;;;2.10;1.00;;;;;;8411127;28;20195;-68
2022/01/06 12:30:15;;;;;;;4.60;2.17;;;2.30;99.90;;;;;;8407666;28;20204;-67
2022/01/06 12:34:19;;;;;;;4.33;1.53;;;2.50;1.00;;;;;;8401553;28;20191;-68
2022/01/06 12:38:32;;;;;;;1.47;1.00;;;2.70;1.00;;;;;;8402475;28;20189;-67
2022/01/06 12:42:42;;;;;;;5.17;1.60;;;2.40;1.00;;;;;;8400213;28;20220;-67
2022/01/06 12:46:43;;;;;;;1.10;0.80;;;2.50;99.90;;;;;;8409758;28;20192;-68
2022/01/06 12:50:49;;;;;;;6.80;1.07;;;2.40;99.90;;;;;;8398950;28;20189;-68
2022/01/06 12:54:50;;;;;;;6.80;1.30;;;2.40;99.90;;;;;;8401694;28;20287;-67
2022/01/06 12:58:51;;;;;;;5.00;1.40;;;2.40;99.90;;;;;;8410269;28;20211;-66
2022/01/06 13:02:56;;;;;;;5.53;1.40;;;2.50;99.90;;;;;;8392405;28;20300;-67
2022/01/06 13:07:02;;;;;;;2.20;1.20;;;2.30;1.00;;;;;;8412836;28;20181;-67
2022/01/06 13:11:08;;;;;;;2.80;1.20;;;2.40;1.00;;;;;;8412751;28;20283;-69
2022/01/06 13:15:09;;;;;;;2.97;0.80;;;2.60;58.00;;;;;;8408981;28;20231;-66
2022/01/06 13:19:15;;;;;;;5.27;1.50;;;2.60;1.00;;;;;;8414973;28;20195;-68
2022/01/06 13:27:36;;;;;;;5.50;1.53;;;3.00;18.90;;;;;;8418222;28;20214;-67
2022/01/06 13:31:37;;;;;;;4.93;1.27;;;2.70;1.00;;;;;;8416605;28;20184;-68
2022/01/06 13:35:56;;;;;;;3.17;1.20;;;2.50;1.00;;;;;;8401863;28;20193;-68
2022/01/06 13:40:03;;;;;;;4.03;1.07;;;2.50;99.90;;;;;;8410240;28;20197;-68
2022/01/06 13:44:06;;;;;;;1.60;1.00;;;2.50;99.90;;;;;;8413188;28;20274;-68
2022/01/06 13:52:27;;;;;;;2.93;1.00;;;2.60;1.00;;;;;;8405535;28;20254;-70
2022/01/06 13:56:34;;;;;;;2.27;1.07;;;2.70;99.90;;;;;;8407209;28;20189;-66
2022/01/06 14:00:35;;;;;;;4.40;1.60;;;2.50;99.90;;;;;;8413452;28;20200;-67
2022/01/06 14:04:40;;;;;;;3.97;1.23;;;2.60;99.90;;;;;;8412153;28;20192;-66
2022/01/06 14:08:41;;;;;;;4.03;1.10;;;2.60;99.90;;;;;;8404459;28;20180;-67
2022/01/06 14:12:42;;;;;;;3.47;0.93;;;2.40;99.90;;;;;;8412365;28;20193;-67
2022/01/06 14:16:43;;;;;;;3.07;1.30;;;1.90;99.90;;;;;;8414140;28;20213;-66
2022/01/06 14:20:44;;;;;;;3.90;1.67;;;1.60;99.90;;;;;;8403210;28;20196;-67
2022/01/06 14:24:46;;;;;;;2.17;1.30;;;1.50;1.00;;;;;;8409459;28;20207;-69
2022/01/06 14:28:47;;;;;;;6.13;1.20;;;1.40;1.00;;;;;;8414398;28;20238;-67
2022/01/06 14:32:48;;;;;;;3.43;1.00;;;1.40;1.00;;;;;;8392144;28;20192;-67
2022/01/06 14:36:51;;;;;;;3.60;1.40;;;1.40;1.00;;;;;;8409073;28;20230;-69
2022/01/06 14:40:53;;;;;;;1.97;1.30;;;1.30;1.00;;;;;;8416210;28;20212;-67
2022/01/06 14:44:54;;;;;;;6.13;1.70;;;1.20;1.00;;;;;;8410833;28;20216;-68
2022/01/06 14:48:55;;;;;;;3.00;1.17;;;1.20;99.90;;;;;;8400708;28;20176;-67
2022/01/06 14:52:55;;;;;;;2.90;1.27;;;1.10;99.90;;;;;;8407887;28;20184;-67
2022/01/06 14:56:56;;;;;;;4.17;1.17;;;1.00;1.00;;;;;;8407746;28;20181;-67
2022/01/06 15:00:57;;;;;;;4.37;1.63;;;0.90;1.00;;;;;;8408291;28;20212;-68
2022/01/06 15:04:58;;;;;;;4.63;1.57;;;0.80;1.00;;;;;;8405644;28;20173;-68
2022/01/06 15:08:59;;;;;;;5.63;1.23;;;0.70;31.90;;;;;;8405089;28;20294;-68
2022/01/06 15:13:00;;;;;;;5.23;1.70;;;0.60;2.40;;;;;;8398190;28;20185;-67
2022/01/06 15:17:01;;;;;;;2.13;1.30;;;0.50;77.20;;;;;;8398544;28;20204;-69
2022/01/06 15:21:02;;;;;;;5.43;2.27;;;0.40;99.90;;;;;;8402625;28;20240;-66
2022/01/06 15:25:05;;;;;;;4.33;1.50;;;0.30;99.90;;;;;;8396811;28;20176;-67
2022/01/06 15:29:09;;;;;;;7.10;1.90;;;0.30;99.90;;;;;;8407866;28;20196;-67
2022/01/06 15:33:10;;;;;;;5.03;1.70;;;0.20;99.90;;;;;;8399497;28;20187;-67
2022/01/06 15:37:11;;;;;;;3.17;1.07;;;0.00;99.90;;;;;;8397888;28;20192;-65
2022/01/06 15:41:13;;;;;;;3.60;1.40;;;-0.10;99.90;;;;;;8405776;28;20211;-64
2022/01/06 15:45:15;;;;;;;3.07;1.10;;;-0.20;99.90;;;;;;8394663;28;20191;-66
2022/01/06 15:49:16;;;;;;;4.27;1.60;;;-0.40;99.90;;;;;;8411914;28;20192;-65
2022/01/06 15:53:17;;;;;;;3.83;1.40;;;-0.40;99.90;;;;;;8410405;28;20196;-64
2022/01/06 15:57:18;;;;;;;1.13;0.90;;;-0.50;1.00;;;;;;8405183;28;20557;-66
2022/01/06 16:05:31;;;;;;;2.10;0.93;;;-1.00;1.00;;;;;;8405529;28;20198;-63
2022/01/06 16:09:32;;;;;;;2.63;1.03;;;-1.20;99.90;;;;;;8404018;28;20186;-64
2022/01/06 16:13:34;;;;;;;2.07;1.03;;;-1.30;99.90;;;;;;8401929;28;20194;-63
2022/01/06 16:17:35;;;;;;;4.20;1.00;;;-1.30;1.00;;;;;;8394805;28;20245;-64
2022/01/06 16:21:36;;;;;;;3.27;0.93;;;-1.40;58.90;;;;;;8405240;28;20198;-64
2022/01/06 16:25:37;;;;;;;3.93;1.03;;;-1.50;99.90;;;;;;8418212;28;20178;-64
2022/01/06 16:29:38;;;;;;;1.23;1.00;;;-1.60;1.00;;;;;;8405138;28;20183;-63
2022/01/06 16:33:43;;;;;;;2.37;1.20;;;-1.70;1.00;;;;;;8407211;28;20194;-64
2022/01/06 16:37:44;;;;;;;3.60;1.40;;;-1.90;55.30;;;;;;8414450;28;20203;-63
2022/01/06 16:41:44;;;;;;;2.00;1.37;;;-2.10;99.90;;;;;;8401676;28;20209;-66
2022/01/06 16:45:45;;;;;;;1.70;0.80;;;-2.20;99.90;;;;;;8402133;28;20193;-65
2022/01/06 16:49:47;;;;;;;1.50;1.17;;;-2.40;99.90;;;;;;8406863;28;20275;-64
2022/01/06 16:53:48;;;;;;;1.70;1.60;;;-2.40;1.00;;;;;;8393496;28;20221;-65
2022/01/06 16:57:49;;;;;;;4.93;2.37;;;-2.40;99.90;;;;;;8393973;28;20189;-65
2022/01/06 17:01:49;;;;;;;7.27;2.70;;;-2.40;99.90;;;;;;8407258;28;20225;-64
2022/01/06 17:05:50;;;;;;;5.93;2.60;;;-2.40;99.90;;;;;;8415717;28;20268;-64
2022/01/06 17:09:51;;;;;;;2.80;1.80;;;-2.40;1.00;;;;;;8406462;28;20216;-66
2022/01/06 17:13:52;;;;;;;4.73;1.90;;;-2.40;99.90;;;;;;8403394;28;20185;-65
2022/01/06 17:17:53;;;;;;;5.97;2.20;;;-2.40;99.90;;;;;;8405668;28;20207;-65
2022/01/06 17:21:54;;;;;;;5.33;2.27;;;-2.40;99.90;;;;;;8402642;28;20205;-64
2022/01/06 17:25:55;;;;;;;7.43;2.93;;;-2.40;99.90;;;;;;8416096;28;20285;-64
2022/01/06 17:29:56;;;;;;;6.17;2.67;;;-2.40;99.90;;;;;;8413100;28;20586;-64
2022/01/06 17:33:57;;;;;;;4.90;1.93;;;-2.30;99.90;;;;;;8404980;28;20188;-65
2022/01/06 17:37:58;;;;;;;4.20;2.20;;;-2.20;1.00;;;;;;8404968;28;20181;-66
2022/01/06 17:41:59;;;;;;;4.07;1.87;;;-2.10;99.90;;;;;;8400207;28;20216;-65
2022/01/06 17:46:01;;;;;;;4.93;1.70;;;-2.10;99.90;;;;;;8391252;28;20187;-64
2022/01/06 17:50:03;;;;;;;4.30;2.23;;;-2.20;99.90;;;;;;8418913;28;20177;-65
2022/01/06 17:54:05;;;;;;;6.07;2.00;;;-2.20;99.90;;;;;;8400259;28;20196;-64
2022/01/06 17:58:09;;;;;;;2.60;1.93;;;-2.30;1.00;;;;;;8413742;28;20196;-65
2022/01/06 18:02:11;;;;;;;2.80;1.60;;;-2.40;99.90;;;;;;8407137;28;20217;-65
2022/01/06 18:06:15;;;;;;;3.67;1.67;;;-2.40;99.90;;;;;;8389376;28;20181;-65
2022/01/06 18:14:36;;;;;;;3.83;1.63;;;-2.60;99.90;;;;;;8407451;28;20243;-64
2022/01/06 18:18:39;;;;;;;4.10;1.47;;;-2.70;1.00;;;;;;8416055;28;20185;-66
2022/01/06 18:22:40;;;;;;;3.87;2.30;;;-2.80;1.00;;;;;;8393502;28;20212;-65
2022/01/06 18:26:41;;;;;;;13.33;5.87;;;-2.90;99.90;;;;;;8409769;28;20276;-64
2022/01/06 18:30:42;;;;;;;14.40;6.37;;;-2.90;99.90;;;;;;8399758;28;20181;-64
2022/01/06 18:34:43;;;;;;;9.43;5.73;;;-2.90;99.90;;;;;;8397889;28;20188;-65
2022/01/06 18:38:48;;;;;;;10.47;4.67;;;-3.00;1.00;;;;;;8401873;28;20196;-64
2022/01/06 18:42:50;;;;;;;5.07;2.50;;;-3.00;1.00;;;;;;8410013;28;20257;-64
2022/01/06 18:46:51;;;;;;;5.73;2.63;;;-3.10;1.00;;;;;;8410643;28;20169;-65
2022/01/06 18:50:53;;;;;;;6.20;2.73;;;-3.00;99.90;;;;;;8396856;28;20188;-64
2022/01/06 18:54:55;;;;;;;3.07;2.27;;;-3.00;99.90;;;;;;8408918;28;20181;-64
2022/01/06 18:59:00;;;;;;;7.20;2.60;;;-3.00;99.90;;;;;;8404565;28;20324;-65
2022/01/06 19:03:04;;;;;;;6.77;2.60;;;-2.90;99.90;;;;;;8410094;28;20216;-65
2022/01/06 19:07:06;;;;;;;6.83;4.63;;;-2.90;99.90;;;;;;8398982;28;20253;-63
2022/01/06 19:11:07;;;;;;;7.13;2.90;;;-3.00;99.90;;;;;;8404390;28;20188;-64
2022/01/06 19:15:09;;;;;;;6.50;2.93;;;-3.00;99.90;;;;;;8402029;28;20267;-64
2022/01/06 19:19:10;;;;;;;5.77;2.57;;;-3.00;99.90;;;;;;8407159;28;20184;-63
2022/01/06 19:23:11;;;;;;;6.03;3.10;;;-3.10;99.90;;;;;;8395038;28;20295;-65
2022/01/06 19:27:12;;;;;;;6.80;4.13;;;-3.10;99.90;;;;;;8396198;28;20185;-65
2022/01/06 19:31:13;;;;;;;8.00;4.53;;;-3.10;99.90;;;;;;8389629;28;20260;-64
2022/01/06 19:35:17;;;;;;;7.97;3.87;;;-3.20;99.90;;;;;;8403737;28;20272;-64
2022/01/06 19:39:19;;;;;;;10.90;5.07;;;-3.20;99.90;;;;;;8404652;28;20213;-65
2022/01/06 19:43:20;;;;;;;8.03;3.80;;;-3.30;99.90;;;;;;8404535;28;20220;-64
2022/01/06 19:47:20;;;;;;;11.47;6.90;;;-3.40;99.90;;;;;;8405831;28;20185;-65
2022/01/06 19:51:21;;;;;;;10.30;6.17;;;-3.40;99.90;;;;;;8403289;28;20192;-64
2022/01/06 19:55:22;;;;;;;11.97;5.97;;;-3.40;99.90;;;;;;8414407;28;20189;-64
2022/01/06 19:59:27;;;;;;;10.93;5.13;;;-3.40;99.90;;;;;;8418543;28;20185;-65
2022/01/06 20:03:28;;;;;;;10.30;5.63;;;-3.40;99.90;;;;;;8417761;28;20305;-65
2022/01/06 20:07:29;;;;;;;10.13;5.33;;;-3.30;99.90;;;;;;8407657;28;20189;-64
2022/01/06 20:11:30;;;;;;;16.47;6.50;;;-3.30;99.90;;;;;;8410932;28;20239;-64
2022/01/06 20:15:31;;;;;;;51.50;14.60;;;-3.20;99.90;;;;;;8413761;28;20228;-64
2022/01/06 20:19:32;;;;;;;25.33;9.50;;;-3.20;99.90;;;;;;8412211;28;20220;-64
2022/01/06 20:23:33;;;;;;;71.90;18.87;;;-3.20;99.90;;;;;;8409385;28;20542;-67
2022/01/06 20:27:34;;;;;;;30.23;10.93;;;-3.20;99.90;;;;;;8412871;28;20271;-64
2022/01/06 20:31:35;;;;;;;14.07;6.60;;;-3.30;99.90;;;;;;8413962;28;20215;-64
2022/01/06 20:35:36;;;;;;;15.63;8.60;;;-3.30;99.90;;;;;;8390612;28;20199;-65
2022/01/06 20:39:37;;;;;;;30.60;12.17;;;-3.30;99.90;;;;;;8402565;28;20199;-67
2022/01/06 20:43:38;;;;;;;30.57;12.57;;;-3.20;99.90;;;;;;8414358;28;20215;-64
2022/01/06 20:51:40;;;;;;;49.17;17.77;;;-3.10;99.90;;;;;;8416470;28;20188;-64
2022/01/06 20:55:43;;;;;;;55.30;18.83;;;-3.10;99.90;;;;;;8416938;28;20211;-63
2022/01/06 20:59:44;;;;;;;29.97;12.23;;;-3.10;99.90;;;;;;8403990;28;20192;-64
2022/01/06 21:03:46;;;;;;;54.63;18.57;;;-3.10;99.90;;;;;;8406550;28;20223;-64
2022/01/06 21:07:47;;;;;;;46.57;16.70;;;-3.00;99.90;;;;;;8413194;28;20184;-65
2022/01/06 21:11:49;;;;;;;56.33;21.00;;;-3.00;99.90;;;;;;8408471;28;20265;-65
2022/01/06 21:15:50;;;;;;;66.90;24.20;;;-3.00;99.90;;;;;;8403158;28;20209;-64
2022/01/06 21:19:51;;;;;;;73.63;26.83;;;-3.00;99.90;;;;;;8410031;28;20193;-64
2022/01/06 21:23:52;;;;;;;71.17;25.57;;;-3.00;99.90;;;;;;8411603;28;20319;-63
2022/01/06 21:27:54;;;;;;;89.87;30.87;;;-2.90;99.90;;;;;;8393220;28;20189;-63
2022/01/06 21:31:56;;;;;;;33.53;14.43;;;-2.90;99.90;;;;;;8401218;28;20185;-64
2022/01/06 21:35:57;;;;;;;23.13;11.13;;;-2.90;99.90;;;;;;8397268;28;20243;-64
2022/01/06 21:39:59;;;;;;;24.13;13.03;;;-2.90;99.90;;;;;;8401794;28;20192;-64
2022/01/06 21:44:00;;;;;;;23.23;14.43;;;-2.90;99.90;;;;;;8389593;28;20204;-64
2022/01/06 21:48:01;;;;;;;25.53;13.40;;;-2.80;99.90;;;;;;8393627;28;20183;-65